Time;durP1;ratioP1;P1;durP2;ratioP2;P2;SDS_P1;SDS_P2;PMS_P1;PMS_P2;Temp;Humidity;BMP_temperature;BMP_pressure;BME280_temperature;BME280_humidity;BME280_pressure;Samples;Min_cycle;Max_cycle;Signal;HPM_P1;HPM_P2
2022/03/20 00:00:26;;;;;;;;;1.00;1.00;;;;;;;;4944387;28;11438;-80
2022/03/20 00:02:54;;;;;;;;;2.00;2.00;;;;;;;;4945666;28;11573;-79
2022/03/20 00:05:21;;;;;;;;;0.50;0.50;;;;;;;;4942557;28;11660;-78
2022/03/20 00:07:49;;;;;;;;;0.00;0.00;;;;;;;;4945355;28;11548;-79
2022/03/20 00:10:18;;;;;;;;;0.00;0.00;;;;;;;;4943619;28;11516;-82
2022/03/20 00:12:45;;;;;;;;;1.00;1.00;;;;;;;;4939676;28;11506;-81
2022/03/20 00:15:13;;;;;;;;;1.00;1.00;;;;;;;;4943766;28;11641;-82
2022/03/20 00:17:41;;;;;;;;;2.50;0.50;;;;;;;;4944342;28;11516;-80
2022/03/20 00:20:09;;;;;;;;;0.75;0.75;;;;;;;;4944739;28;11514;-80
2022/03/20 00:22:38;;;;;;;;;1.50;1.00;;;;;;;;4945259;28;11437;-82
2022/03/20 00:25:06;;;;;;;;;0.00;0.00;;;;;;;;4945187;28;11666;-82
2022/03/20 00:27:39;;;;;;;;;2.75;1.00;;;;;;;;4943338;28;11583;-82
2022/03/20 00:30:07;;;;;;;;;1.75;1.75;;;;;;;;4943986;28;11446;-82
2022/03/20 00:32:34;;;;;;;;;1.00;1.00;;;;;;;;4943913;28;12146;-82
2022/03/20 00:35:02;;;;;;;;;0.75;0.75;;;;;;;;4944014;28;11630;-82
2022/03/20 00:37:29;;;;;;;;;1.00;1.00;;;;;;;;4944089;28;11441;-82
2022/03/20 00:39:58;;;;;;;;;1.00;1.00;;;;;;;;4991639;28;11549;-82
2022/03/20 00:42:26;;;;;;;;;1.00;1.00;;;;;;;;4943778;28;11669;-82
2022/03/20 00:44:55;;;;;;;;;3.00;1.00;;;;;;;;4942938;28;11460;-82
2022/03/20 00:47:22;;;;;;;;;2.00;2.00;;;;;;;;4943535;28;11583;-81
2022/03/20 00:49:49;;;;;;;;;1.00;1.00;;;;;;;;4942312;28;12314;-80
2022/03/20 00:52:17;;;;;;;;;2.25;1.00;;;;;;;;4943907;28;11560;-80
2022/03/20 00:54:44;;;;;;;;;3.50;2.25;;;;;;;;4943736;28;11530;-82
2022/03/20 00:57:11;;;;;;;;;1.00;1.00;;;;;;;;4939880;28;11494;-81
2022/03/20 00:59:39;;;;;;;;;1.00;1.00;;;;;;;;4950301;28;11472;-83
2022/03/20 01:02:08;;;;;;;;;0.00;0.00;;;;;;;;5009380;28;11429;-80
2022/03/20 01:04:37;;;;;;;;;1.50;1.50;;;;;;;;4944237;28;11454;-81
2022/03/20 01:07:05;;;;;;;;;0.25;0.25;;;;;;;;4942684;28;11602;-81
2022/03/20 01:09:33;;;;;;;;;1.00;1.00;;;;;;;;4974672;28;11464;-81
2022/03/20 01:12:01;;;;;;;;;1.00;1.00;;;;;;;;4943227;28;11467;-81
2022/03/20 01:14:29;;;;;;;;;1.00;1.00;;;;;;;;4954659;28;11493;-80
2022/03/20 01:16:59;;;;;;;;;2.25;1.00;;;;;;;;4943543;28;11584;-80
2022/03/20 01:19:29;;;;;;;;;0.50;0.50;;;;;;;;4942721;28;11477;-79
2022/03/20 01:21:57;;;;;;;;;2.00;0.25;;;;;;;;4943050;28;11506;-77
2022/03/20 01:24:27;;;;;;;;;1.00;1.00;;;;;;;;4970715;28;11465;-80
2022/03/20 01:26:55;;;;;;;;;2.75;1.00;;;;;;;;4943550;28;11444;-79
2022/03/20 01:29:22;;;;;;;;;1.00;1.00;;;;;;;;4989812;28;11530;-79
2022/03/20 01:31:50;;;;;;;;;2.00;2.00;;;;;;;;4940994;28;11400;-80
2022/03/20 01:34:17;;;;;;;;;2.00;2.00;;;;;;;;4943210;28;11564;-78
2022/03/20 01:36:46;;;;;;;;;1.00;1.00;;;;;;;;4942073;28;11600;-78
2022/03/20 01:39:15;;;;;;;;;2.00;2.00;;;;;;;;4943971;28;11503;-78
2022/03/20 01:41:46;;;;;;;;;1.50;1.50;;;;;;;;4941829;28;11677;-80
2022/03/20 01:44:13;;;;;;;;;1.00;1.00;;;;;;;;4944463;28;11489;-81
2022/03/20 01:46:40;;;;;;;;;1.75;1.75;;;;;;;;4942571;28;11517;-80
2022/03/20 01:49:08;;;;;;;;;2.00;2.00;;;;;;;;4942263;28;11665;-80
2022/03/20 01:54:22;;;;;;;;;1.25;1.25;;;;;;;;4935528;28;11552;-81
2022/03/20 01:56:50;;;;;;;;;2.00;2.00;;;;;;;;5002142;28;11604;-80
2022/03/20 01:59:18;;;;;;;;;3.25;3.25;;;;;;;;4938589;28;11669;-81
2022/03/20 02:01:46;;;;;;;;;1.50;1.50;;;;;;;;4942263;28;11664;-81
2022/03/20 02:04:15;;;;;;;;;1.75;1.75;;;;;;;;4944934;28;11524;-79
2022/03/20 02:06:43;;;;;;;;;5.75;2.75;;;;;;;;4942051;28;11687;-80
2022/03/20 02:09:10;;;;;;;;;5.50;2.00;;;;;;;;4974623;28;11535;-82
2022/03/20 02:11:39;;;;;;;;;1.25;1.25;;;;;;;;4952270;28;12072;-79
2022/03/20 02:14:07;;;;;;;;;1.00;1.00;;;;;;;;4942902;28;11559;-80
2022/03/20 02:16:34;;;;;;;;;2.00;2.00;;;;;;;;4941482;28;11582;-81
2022/03/20 02:19:04;;;;;;;;;1.50;1.50;;;;;;;;4943134;28;11597;-80
2022/03/20 02:21:39;;;;;;;;;2.00;2.00;;;;;;;;4940105;28;12331;-80
2022/03/20 02:24:22;;;;;;;;;4.25;2.00;;;;;;;;4934085;28;11554;-80
2022/03/20 02:26:49;;;;;;;;;0.00;0.00;;;;;;;;4940294;28;11553;-82
2022/03/20 02:29:16;;;;;;;;;3.00;3.00;;;;;;;;4941391;28;11524;-80
2022/03/20 02:31:44;;;;;;;;;4.00;4.00;;;;;;;;4938401;28;12325;-79
2022/03/20 02:34:12;;;;;;;;;3.75;3.75;;;;;;;;4953589;28;11616;-79
2022/03/20 02:36:41;;;;;;;;;2.00;2.00;;;;;;;;4942333;28;11596;-81
2022/03/20 02:39:08;;;;;;;;;1.25;1.25;;;;;;;;4943046;28;11609;-78
2022/03/20 02:41:38;;;;;;;;;2.00;2.00;;;;;;;;4941971;28;11551;-81
2022/03/20 02:44:06;;;;;;;;;1.50;1.50;;;;;;;;4942440;28;11622;-83
2022/03/20 02:46:37;;;;;;;;;3.75;2.75;;;;;;;;4952537;28;11514;-82
2022/03/20 02:49:06;;;;;;;;;3.00;3.00;;;;;;;;4931165;28;11611;-81
2022/03/20 02:51:35;;;;;;;;;2.75;2.75;;;;;;;;4941702;28;11602;-81
2022/03/20 02:54:05;;;;;;;;;2.00;2.00;;;;;;;;4946604;28;12219;-81
2022/03/20 02:56:33;;;;;;;;;4.00;2.00;;;;;;;;4941332;28;11514;-80
2022/03/20 02:59:02;;;;;;;;;0.00;0.00;;;;;;;;4941489;28;11643;-81
2022/03/20 03:01:30;;;;;;;;;3.25;3.25;;;;;;;;4941074;28;11494;-81
2022/03/20 03:03:59;;;;;;;;;2.00;2.00;;;;;;;;4941093;28;11553;-82
2022/03/20 03:06:26;;;;;;;;;4.00;4.00;;;;;;;;4942496;28;11659;-81
2022/03/20 03:11:40;;;;;;;;;0.75;0.75;;;;;;;;4940973;28;11596;-82
2022/03/20 03:16:49;;;;;;;;;6.75;4.00;;;;;;;;4939293;28;12397;-81
2022/03/20 03:19:16;;;;;;;;;3.25;3.25;;;;;;;;4942358;28;11514;-81
2022/03/20 03:21:44;;;;;;;;;5.50;4.25;;;;;;;;4954161;28;11763;-80
2022/03/20 03:24:11;;;;;;;;;5.50;5.50;;;;;;;;4937952;28;11603;-81
2022/03/20 03:26:40;;;;;;;;;7.25;5.50;;;;;;;;4929922;28;11620;-82
2022/03/20 03:29:07;;;;;;;;;8.00;4.00;;;;;;;;4936989;28;11526;-82
2022/03/20 03:31:35;;;;;;;;;4.25;4.25;;;;;;;;4924750;28;11501;-83
2022/03/20 03:36:47;;;;;;;;;6.50;5.00;;;;;;;;4941768;28;11572;-82
2022/03/20 03:39:15;;;;;;;;;5.50;5.00;;;;;;;;4973879;28;11550;-83
2022/03/20 03:41:44;;;;;;;;;2.00;2.00;;;;;;;;4938321;28;11579;-81
2022/03/20 03:44:12;;;;;;;;;9.25;4.00;;;;;;;;4992180;28;11538;-82
2022/03/20 03:46:40;;;;;;;;;8.75;7.50;;;;;;;;4938670;28;11619;-82
2022/03/20 03:49:08;;;;;;;;;6.00;4.00;;;;;;;;4941799;28;11522;-81
2022/03/20 03:51:36;;;;;;;;;4.50;4.50;;;;;;;;4940771;28;11548;-82
2022/03/20 03:54:03;;;;;;;;;7.25;7.25;;;;;;;;4941981;28;12389;-83
2022/03/20 03:56:31;;;;;;;;;5.00;5.00;;;;;;;;4992731;28;11642;-80
2022/03/20 03:59:00;;;;;;;;;5.50;5.50;;;;;;;;4957933;28;11505;-82
2022/03/20 04:01:27;;;;;;;;;3.00;1.75;;;;;;;;4943025;28;11507;-81
2022/03/20 04:03:55;;;;;;;;;6.75;4.25;;;;;;;;4934212;28;11579;-81
2022/03/20 04:06:22;;;;;;;;;4.50;4.50;;;;;;;;4987844;28;11570;-82
2022/03/20 04:08:49;;;;;;;;;6.00;6.00;;;;;;;;4942586;28;11673;-82
2022/03/20 04:11:17;;;;;;;;;6.50;6.50;;;;;;;;4945115;28;12068;-82
2022/03/20 04:13:44;;;;;;;;;11.50;7.75;;;;;;;;4943763;28;11627;-81
2022/03/20 04:16:13;;;;;;;;;6.00;6.00;;;;;;;;4953149;28;11647;-80
2022/03/20 04:18:40;;;;;;;;;4.00;4.00;;;;;;;;4945551;28;11612;-81
2022/03/20 04:21:07;;;;;;;;;5.75;5.75;;;;;;;;4939716;28;11542;-81
2022/03/20 04:23:45;;;;;;;;;8.00;5.00;;;;;;;;4944965;28;11629;-82
2022/03/20 04:26:13;;;;;;;;;5.00;5.00;;;;;;;;4943371;28;11650;-81
2022/03/20 04:28:41;;;;;;;;;9.25;5.00;;;;;;;;4944838;28;11612;-81
2022/03/20 04:31:09;;;;;;;;;4.25;3.25;;;;;;;;4947936;28;12355;-81
2022/03/20 04:33:38;;;;;;;;;5.50;5.50;;;;;;;;4953080;28;11531;-82
2022/03/20 04:36:08;;;;;;;;;5.50;5.50;;;;;;;;4949677;28;11663;-81
2022/03/20 04:38:35;;;;;;;;;7.00;7.00;;;;;;;;4925182;28;11526;-80
2022/03/20 04:41:02;;;;;;;;;5.75;5.75;;;;;;;;4943221;28;11539;-81
2022/03/20 04:43:30;;;;;;;;;4.50;4.50;;;;;;;;4942650;28;12177;-81
2022/03/20 04:45:57;;;;;;;;;5.00;5.00;;;;;;;;4944223;28;11647;-81
2022/03/20 04:59:26;;;;;;;;;4.25;2.75;;;;;;;;4931902;28;11559;-82
2022/03/20 05:01:53;;;;;;;;;4.00;4.00;;;;;;;;4940694;28;11530;-81
2022/03/20 05:04:21;;;;;;;;;5.75;4.75;;;;;;;;4943366;28;11597;-81
2022/03/20 05:06:50;;;;;;;;;4.25;4.25;;;;;;;;4943804;28;11685;-81
2022/03/20 05:14:46;;;;;;;;;5.00;5.00;;;;;;;;4942602;28;11539;-81
2022/03/20 05:17:14;;;;;;;;;5.50;5.50;;;;;;;;4943881;28;11754;-83
2022/03/20 05:19:41;;;;;;;;;3.50;3.50;;;;;;;;4943341;28;11706;-81
2022/03/20 05:22:11;;;;;;;;;2.00;2.00;;;;;;;;4942973;28;11623;-79
2022/03/20 05:24:40;;;;;;;;;4.25;4.25;;;;;;;;4943924;28;11669;-80
2022/03/20 05:27:08;;;;;;;;;5.50;5.50;;;;;;;;4942726;28;11575;-81
2022/03/20 05:29:36;;;;;;;;;9.00;7.00;;;;;;;;4929864;28;11706;-81
2022/03/20 05:32:04;;;;;;;;;5.75;5.75;;;;;;;;4954314;28;11562;-81
2022/03/20 05:34:33;;;;;;;;;8.25;6.00;;;;;;;;4943538;28;11528;-82
2022/03/20 05:37:01;;;;;;;;;6.50;6.50;;;;;;;;4943090;28;11537;-81
2022/03/20 05:39:30;;;;;;;;;6.00;6.00;;;;;;;;4942629;28;11526;-81
2022/03/20 05:41:57;;;;;;;;;7.00;5.25;;;;;;;;4946853;28;11522;-81
2022/03/20 05:44:26;;;;;;;;;8.00;8.00;;;;;;;;4949521;28;11645;-81
2022/03/20 05:46:55;;;;;;;;;6.50;6.50;;;;;;;;4941393;28;11624;-82
2022/03/20 05:49:24;;;;;;;;;8.25;8.25;;;;;;;;4937765;28;11660;-81
2022/03/20 05:51:52;;;;;;;;;7.75;7.75;;;;;;;;4948209;28;11517;-81
2022/03/20 05:54:19;;;;;;;;;5.25;4.50;;;;;;;;4955572;28;11529;-83
2022/03/20 05:59:35;;;;;;;;;5.50;5.50;;;;;;;;4943184;28;11626;-82
2022/03/20 06:02:03;;;;;;;;;9.50;9.25;;;;;;;;4940637;28;11464;-80
2022/03/20 06:04:33;;;;;;;;;8.00;6.50;;;;;;;;4941800;28;11530;-80
2022/03/20 06:07:00;;;;;;;;;7.50;7.50;;;;;;;;4941409;28;11581;-78
2022/03/20 06:09:27;;;;;;;;;9.75;7.75;;;;;;;;4940731;28;11638;-75
2022/03/20 06:11:56;;;;;;;;;8.00;8.00;;;;;;;;4941473;28;11516;-75
2022/03/20 06:14:23;;;;;;;;;8.00;8.00;;;;;;;;4941342;28;12410;-74
2022/03/20 06:16:51;;;;;;;;;9.75;9.00;;;;;;;;4940987;28;11632;-71
2022/03/20 06:19:19;;;;;;;;;10.50;8.75;;;;;;;;4934572;28;11613;-71
2022/03/20 06:21:47;;;;;;;;;8.00;8.00;;;;;;;;4944446;28;12363;-72
2022/03/20 06:24:14;;;;;;;;;12.00;9.33;;;;;;;;4940801;28;11517;-71
2022/03/20 06:26:41;;;;;;;;;8.00;8.00;;;;;;;;4942294;28;11624;-74
2022/03/20 06:29:10;;;;;;;;;9.00;9.00;;;;;;;;4941513;28;11503;-72
2022/03/20 06:31:37;;;;;;;;;7.33;6.67;;;;;;;;4940992;28;11490;-73
2022/03/20 06:34:05;;;;;;;;;8.00;4.00;;;;;;;;4942360;28;11590;-73
2022/03/20 06:36:32;;;;;;;;;8.00;8.00;;;;;;;;4933130;28;11552;-71
2022/03/20 06:39:00;;;;;;;;;6.00;6.00;;;;;;;;4941618;28;11575;-72
2022/03/20 06:41:27;;;;;;;;;9.00;9.00;;;;;;;;4941020;28;12453;-74
2022/03/20 06:43:54;;;;;;;;;10.00;8.75;;;;;;;;4938182;28;11501;-70
2022/03/20 06:46:23;;;;;;;;;9.50;9.50;;;;;;;;4940767;28;11559;-73
2022/03/20 06:48:50;;;;;;;;;5.75;5.75;;;;;;;;4941997;28;11609;-72
2022/03/20 06:51:18;;;;;;;;;8.50;5.50;;;;;;;;4941269;28;11677;-71
2022/03/20 06:53:45;;;;;;;;;11.25;9.50;;;;;;;;4940810;28;11594;-74
2022/03/20 06:56:13;;;;;;;;;11.00;9.75;;;;;;;;4955313;28;11509;-74
2022/03/20 06:58:40;;;;;;;;;9.75;9.75;;;;;;;;5004379;28;11568;-72
2022/03/20 07:01:08;;;;;;;;;11.25;9.00;;;;;;;;4940183;28;11617;-73
2022/03/20 07:03:38;;;;;;;;;10.00;9.50;;;;;;;;4938005;28;11591;-73
2022/03/20 07:06:05;;;;;;;;;9.00;9.00;;;;;;;;4941477;28;11565;-74
2022/03/20 07:08:32;;;;;;;;;13.50;12.00;;;;;;;;4940831;28;11607;-73
2022/03/20 07:11:00;;;;;;;;;13.00;13.00;;;;;;;;4939023;28;11551;-73
2022/03/20 07:16:14;;;;;;;;;17.00;17.00;;;;;;;;4940889;28;11738;-73
2022/03/20 07:18:45;;;;;;;;;19.00;14.75;;;;;;;;4941449;28;11726;-72
2022/03/20 07:21:14;;;;;;;;;21.50;19.25;;;;;;;;4936399;28;11606;-73
2022/03/20 07:23:42;;;;;;;;;19.50;17.00;;;;;;;;4941305;28;11661;-72
2022/03/20 07:31:38;;;;;;;;;12.50;11.25;;;;;;;;4944157;28;11496;-72
2022/03/20 07:34:07;;;;;;;;;21.25;12.00;;;;;;;;4942367;28;11537;-73
2022/03/20 07:36:34;;;;;;;;;18.75;13.75;;;;;;;;4941362;28;12400;-73
2022/03/20 07:39:02;;;;;;;;;17.00;14.00;;;;;;;;4944920;28;11608;-73
2022/03/20 07:41:29;;;;;;;;;19.00;17.00;;;;;;;;4942954;28;11567;-74
2022/03/20 07:43:57;;;;;;;;;17.25;17.25;;;;;;;;4925174;28;11566;-73
2022/03/20 07:46:24;;;;;;;;;14.50;14.50;;;;;;;;4943095;28;11734;-74
2022/03/20 07:48:52;;;;;;;;;25.75;20.50;;;;;;;;4959161;28;11571;-73
2022/03/20 07:51:23;;;;;;;;;18.00;18.00;;;;;;;;4943080;28;11580;-73
2022/03/20 07:53:50;;;;;;;;;20.25;18.00;;;;;;;;4944613;28;12490;-74
2022/03/20 07:56:21;;;;;;;;;16.75;16.00;;;;;;;;4944558;28;12452;-74
2022/03/20 07:58:48;;;;;;;;;17.75;17.75;;;;;;;;4944442;28;11676;-73
2022/03/20 08:01:15;;;;;;;;;18.25;18.25;;;;;;;;4939145;28;11482;-73
2022/03/20 08:03:42;;;;;;;;;22.50;21.00;;;;;;;;4955925;28;11593;-74
2022/03/20 08:06:11;;;;;;;;;20.75;17.75;;;;;;;;4945675;28;11569;-76
2022/03/20 08:08:41;;;;;;;;;21.25;14.50;;;;;;;;4942354;28;11654;-76
2022/03/20 08:11:09;;;;;;;;;22.50;20.50;;;;;;;;4943000;28;12234;-73
2022/03/20 08:13:36;;;;;;;;;30.50;26.25;;;;;;;;4944081;28;11691;-74
2022/03/20 08:16:04;;;;;;;;;27.00;20.00;;;;;;;;4942401;28;11615;-74
2022/03/20 08:18:31;;;;;;;;;29.75;25.50;;;;;;;;4942764;28;11652;-73
2022/03/20 08:20:58;;;;;;;;;16.50;16.50;;;;;;;;4943367;28;11682;-73
2022/03/20 08:23:26;;;;;;;;;26.25;23.75;;;;;;;;4943604;28;11681;-72
2022/03/20 08:25:54;;;;;;;;;18.00;18.00;;;;;;;;4942880;28;11589;-73
2022/03/20 08:28:21;;;;;;;;;21.75;20.25;;;;;;;;4997379;28;11782;-74
2022/03/20 08:30:49;;;;;;;;;47.50;35.25;;;;;;;;4939011;28;11576;-73
2022/03/20 08:33:16;;;;;;;;;32.50;32.00;;;;;;;;4943162;28;11692;-74
2022/03/20 08:35:44;;;;;;;;;31.25;26.25;;;;;;;;4934842;28;11693;-73
2022/03/20 08:38:11;;;;;;;;;36.50;34.00;;;;;;;;4942447;28;11614;-73
2022/03/20 08:40:38;;;;;;;;;27.50;25.50;;;;;;;;4943474;28;11739;-74
2022/03/20 08:43:09;;;;;;;;;81.00;63.67;;;;;;;;4941278;28;11559;-74
2022/03/20 08:45:36;;;;;;;;;37.75;31.75;;;;;;;;4956637;28;11682;-74
2022/03/20 08:48:04;;;;;;;;;33.25;29.25;;;;;;;;4944575;28;11614;-73
2022/03/20 08:50:31;;;;;;;;;29.25;29.25;;;;;;;;4943713;28;11685;-72
2022/03/20 08:52:59;;;;;;;;;25.50;24.00;;;;;;;;4945192;28;11632;-75
2022/03/20 08:55:26;;;;;;;;;39.75;38.50;;;;;;;;4942772;28;11650;-72
2022/03/20 08:57:54;;;;;;;;;33.75;30.25;;;;;;;;4964457;28;12475;-71
2022/03/20 09:00:25;;;;;;;;;25.50;23.00;;;;;;;;4942121;28;12491;-71
2022/03/20 09:02:53;;;;;;;;;24.00;24.00;;;;;;;;4940363;28;11608;-74
2022/03/20 09:05:21;;;;;;;;;22.00;20.25;;;;;;;;4939152;28;11599;-72
2022/03/20 09:07:49;;;;;;;;;31.00;29.00;;;;;;;;4941922;28;11616;-72
2022/03/20 09:10:17;;;;;;;;;26.25;24.50;;;;;;;;4937925;28;11578;-71
2022/03/20 09:12:45;;;;;;;;;26.25;25.00;;;;;;;;4941046;28;12346;-69
2022/03/20 09:15:14;;;;;;;;;31.00;29.00;;;;;;;;4941386;28;11581;-70
2022/03/20 09:20:28;;;;;;;;;33.50;33.25;;;;;;;;4943215;28;11541;-72
2022/03/20 09:22:55;;;;;;;;;29.50;26.00;;;;;;;;4943169;28;11603;-72
2022/03/20 09:25:23;;;;;;;;;25.00;25.00;;;;;;;;4943084;28;11701;-72
2022/03/20 09:27:51;;;;;;;;;32.00;29.25;;;;;;;;4943213;28;11596;-71
2022/03/20 09:30:19;;;;;;;;;37.00;32.00;;;;;;;;4941423;28;11563;-74
2022/03/20 09:32:48;;;;;;;;;29.75;27.00;;;;;;;;4963779;28;11553;-75
2022/03/20 09:35:16;;;;;;;;;36.00;28.75;;;;;;;;4945202;28;11651;-72
2022/03/20 09:37:44;;;;;;;;;36.00;35.75;;;;;;;;4941195;28;11577;-74
2022/03/20 09:40:12;;;;;;;;;37.00;32.25;;;;;;;;4934840;28;11639;-72
2022/03/20 09:42:40;;;;;;;;;34.00;32.00;;;;;;;;4941289;28;11712;-73
2022/03/20 09:45:09;;;;;;;;;34.00;28.75;;;;;;;;4937076;28;11619;-74
2022/03/20 09:47:36;;;;;;;;;35.50;34.25;;;;;;;;4941944;28;11556;-71
2022/03/20 09:50:06;;;;;;;;;34.75;31.75;;;;;;;;4942268;28;11396;-72
2022/03/20 09:52:34;;;;;;;;;30.50;29.75;;;;;;;;4922980;28;11083;-75
2022/03/20 09:55:01;;;;;;;;;35.75;34.00;;;;;;;;4941453;28;11173;-74
2022/03/20 09:57:29;;;;;;;;;36.25;34.00;;;;;;;;4941206;28;11062;-73
2022/03/20 09:59:57;;;;;;;;;36.25;29.50;;;;;;;;4938569;28;10951;-75
2022/03/20 10:02:28;;;;;;;;;33.25;31.00;;;;;;;;4937802;28;10763;-74
2022/03/20 10:04:56;;;;;;;;;34.00;29.75;;;;;;;;4942122;28;10736;-75
2022/03/20 10:07:27;;;;;;;;;32.00;31.25;;;;;;;;4942755;28;10602;-74
2022/03/20 10:10:11;;;;;;;;;36.25;33.50;;;;;;;;4941618;28;11439;-74
2022/03/20 10:12:43;;;;;;;;;34.75;27.00;;;;;;;;4938885;28;10592;-75
2022/03/20 10:15:11;;;;;;;;;37.50;33.75;;;;;;;;4942703;28;10357;-76
2022/03/20 10:17:39;;;;;;;;;45.00;38.75;;;;;;;;4941062;28;11200;-75
2022/03/20 10:20:18;;;;;;;;;45.50;38.50;;;;;;;;4942485;28;11099;-74
2022/03/20 10:22:48;;;;;;;;;29.75;29.00;;;;;;;;4941295;28;10821;-73
2022/03/20 10:25:21;;;;;;;;;33.25;30.25;;;;;;;;4941801;28;10450;-74
2022/03/20 10:27:58;;;;;;;;;34.50;32.50;;;;;;;;4937501;28;10399;-75
2022/03/20 10:30:25;;;;;;;;;36.50;35.25;;;;;;;;4919722;28;10590;-75
2022/03/20 10:32:53;;;;;;;;;48.00;34.50;;;;;;;;4940608;28;10533;-75
2022/03/20 10:35:20;;;;;;;;;35.00;33.75;;;;;;;;4939545;28;11305;-76
2022/03/20 10:37:53;;;;;;;;;39.25;35.50;;;;;;;;4941200;28;10233;-76
2022/03/20 10:40:22;;;;;;;;;31.25;29.00;;;;;;;;4939955;28;10346;-75
2022/03/20 10:43:09;;;;;;;;;34.00;33.25;;;;;;;;4940474;28;10338;-74
2022/03/20 10:46:00;;;;;;;;;33.00;30.25;;;;;;;;4917533;28;10528;-76
2022/03/20 10:48:36;;;;;;;;;32.00;29.75;;;;;;;;4940710;28;10138;-74
2022/03/20 10:51:05;;;;;;;;;41.25;36.75;;;;;;;;4940040;28;10304;-77
2022/03/20 10:53:35;;;;;;;;;37.50;35.25;;;;;;;;4964128;28;10509;-77
2022/03/20 10:56:07;;;;;;;;;39.75;34.75;;;;;;;;4940106;28;10341;-77
2022/03/20 10:58:38;;;;;;;;;38.25;34.25;;;;;;;;4940781;28;10343;-76
2022/03/20 11:01:08;;;;;;;;;27.50;27.50;;;;;;;;5006897;28;10202;-77
2022/03/20 11:03:37;;;;;;;;;35.50;33.50;;;;;;;;4936316;28;10215;-78
2022/03/20 11:06:07;;;;;;;;;36.25;32.25;;;;;;;;4939675;28;10169;-72
2022/03/20 11:08:37;;;;;;;;;34.50;33.50;;;;;;;;4933776;28;9972;-79
2022/03/20 11:11:05;;;;;;;;;34.50;33.00;;;;;;;;4944006;28;9992;-77
2022/03/20 11:13:35;;;;;;;;;32.00;30.00;;;;;;;;4945195;28;10518;-76
2022/03/20 11:16:06;;;;;;;;;32.67;31.33;;;;;;;;4943930;28;9534;-76
2022/03/20 11:18:35;;;;;;;;;29.67;29.67;;;;;;;;4945138;28;9454;-77
2022/03/20 11:21:03;;;;;;;;;27.00;25.33;;;;;;;;4944106;28;9457;-78
2022/03/20 11:23:32;;;;;;;;;33.75;31.50;;;;;;;;4944259;28;9364;-76
2022/03/20 11:26:04;;;;;;;;;31.33;30.00;;;;;;;;4945990;28;9542;-78
2022/03/20 11:28:36;;;;;;;;;30.67;29.33;;;;;;;;4944082;28;10073;-76
2022/03/20 11:31:04;;;;;;;;;30.00;26.33;;;;;;;;4944293;28;9952;-78
2022/03/20 11:33:31;;;;;;;;;29.67;24.33;;;;;;;;4948098;28;9298;-76
2022/03/20 11:36:02;;;;;;;;;24.67;23.33;;;;;;;;4943633;28;9011;-75
2022/03/20 11:38:31;;;;;;;;;22.25;20.50;;;;;;;;4929460;28;9684;-77
2022/03/20 11:41:23;;;;;;;;;28.25;23.00;;;;;;;;4932450;28;9000;-76
2022/03/20 11:44:14;;;;;;;;;22.75;22.75;;;;;;;;4937120;28;8869;-77
2022/03/20 11:46:43;;;;;;;;;32.75;29.25;;;;;;;;4939049;28;8896;-76
2022/03/20 11:49:24;;;;;;;;;31.00;29.75;;;;;;;;4942254;28;8975;-77
2022/03/20 11:52:02;;;;;;;;;31.50;31.25;;;;;;;;4940683;28;9614;-76
2022/03/20 11:54:57;;;;;;;;;24.00;24.00;;;;;;;;4925031;28;8879;-75
2022/03/20 11:57:45;;;;;;;;;32.25;31.50;;;;;;;;4916620;28;8920;-76
2022/03/20 12:00:18;;;;;;;;;26.50;26.00;;;;;;;;4933751;28;8886;-76
2022/03/20 12:02:52;;;;;;;;;33.67;26.33;;;;;;;;4909296;28;8874;-75
2022/03/20 12:05:29;;;;;;;;;33.33;31.00;;;;;;;;4942113;28;8955;-75
2022/03/20 12:08:00;;;;;;;;;33.67;29.33;;;;;;;;4943608;28;9229;-77
2022/03/20 12:10:35;;;;;;;;;30.33;28.00;;;;;;;;4944409;28;9175;-77
2022/03/20 12:13:14;;;;;;;;;27.00;25.67;;;;;;;;4929496;28;9333;-77
2022/03/20 12:15:45;;;;;;;;;25.33;22.00;;;;;;;;4942906;28;9224;-77
2022/03/20 12:18:12;;;;;;;;;27.33;24.33;;;;;;;;4929594;28;9205;-77
2022/03/20 12:21:05;;;;;;;;;22.25;21.00;;;;;;;;4925760;28;9247;-77
2022/03/20 12:23:39;;;;;;;;;21.75;20.00;;;;;;;;4924881;28;8890;-77
2022/03/20 12:26:34;;;;;;;;;23.00;22.00;;;;;;;;4925617;28;8928;-77
2022/03/20 12:29:36;;;;;;;;;28.25;24.00;;;;;;;;4929557;28;9023;-78
2022/03/20 12:32:20;;;;;;;;;22.00;21.25;;;;;;;;4938403;28;8831;-77
2022/03/20 12:35:28;;;;;;;;;23.50;18.00;;;;;;;;4945480;28;8860;-77
2022/03/20 12:37:57;;;;;;;;;18.50;18.50;;;;;;;;4941522;28;8985;-77
2022/03/20 12:40:26;;;;;;;;;19.75;16.25;;;;;;;;4928297;28;8892;-75
2022/03/20 12:42:59;;;;;;;;;21.50;19.25;;;;;;;;4912510;28;8896;-81
2022/03/20 12:45:28;;;;;;;;;14.25;13.75;;;;;;;;4940011;28;8869;-79
2022/03/20 12:48:10;;;;;;;;;15.00;14.25;;;;;;;;4945791;28;8873;-75
2022/03/20 12:50:38;;;;;;;;;13.25;13.25;;;;;;;;4932824;28;8868;-75
2022/03/20 12:53:07;;;;;;;;;19.00;15.00;;;;;;;;4926447;28;8868;-77
2022/03/20 12:55:37;;;;;;;;;14.50;14.50;;;;;;;;4940782;28;8903;-77
2022/03/20 12:58:06;;;;;;;;;15.75;15.75;;;;;;;;4943155;28;8876;-80
2022/03/20 13:00:35;;;;;;;;;17.75;14.75;;;;;;;;4941288;28;9543;-78
2022/03/20 13:03:07;;;;;;;;;13.50;13.50;;;;;;;;4940639;28;8990;-78
2022/03/20 13:05:38;;;;;;;;;9.50;7.75;;;;;;;;4941095;28;8908;-79
2022/03/20 13:08:06;;;;;;;;;11.00;11.00;;;;;;;;4940619;28;8864;-78
2022/03/20 13:10:36;;;;;;;;;17.75;16.00;;;;;;;;4931063;28;8991;-79
2022/03/20 13:13:04;;;;;;;;;17.50;16.50;;;;;;;;4939256;28;8895;-79
2022/03/20 13:15:33;;;;;;;;;17.75;17.75;;;;;;;;4942455;28;8896;-80
2022/03/20 13:18:01;;;;;;;;;21.75;20.00;;;;;;;;4941668;28;8880;-76
2022/03/20 13:20:32;;;;;;;;;24.75;21.00;;;;;;;;4934152;28;8859;-74
2022/03/20 13:23:06;;;;;;;;;17.75;16.00;;;;;;;;4927487;28;8849;-77
2022/03/20 13:25:37;;;;;;;;;19.00;18.00;;;;;;;;4940580;28;8865;-78
2022/03/20 13:28:05;;;;;;;;;19.75;17.00;;;;;;;;4941789;28;9002;-81
2022/03/20 13:30:38;;;;;;;;;16.25;16.25;;;;;;;;4931729;28;8817;-79
2022/03/20 13:33:06;;;;;;;;;16.50;16.50;;;;;;;;4930148;28;9515;-77
2022/03/20 13:35:35;;;;;;;;;16.50;16.50;;;;;;;;4936111;28;9001;-77
2022/03/20 13:38:04;;;;;;;;;18.50;15.75;;;;;;;;4943207;28;8938;-78
2022/03/20 13:40:34;;;;;;;;;18.75;18.75;;;;;;;;4941983;28;8884;-77
2022/03/20 13:43:02;;;;;;;;;19.75;19.75;;;;;;;;4935900;28;8909;-77
2022/03/20 13:45:36;;;;;;;;;23.50;19.50;;;;;;;;4942949;28;8892;-77
2022/03/20 13:48:06;;;;;;;;;19.75;18.00;;;;;;;;4942431;28;8877;-77
2022/03/20 13:50:35;;;;;;;;;21.00;20.75;;;;;;;;5009046;28;9023;-77
2022/03/20 13:53:02;;;;;;;;;18.25;18.25;;;;;;;;4943200;28;8873;-77
2022/03/20 13:55:38;;;;;;;;;18.75;18.00;;;;;;;;4943926;28;9003;-77
2022/03/20 13:58:06;;;;;;;;;18.00;18.00;;;;;;;;4942165;28;8888;-77
2022/03/20 14:00:36;;;;;;;;;20.75;18.75;;;;;;;;4942313;28;8915;-77
2022/03/20 14:03:06;;;;;;;;;17.00;17.00;;;;;;;;4943554;28;8880;-76
2022/03/20 14:05:36;;;;;;;;;23.25;16.25;;;;;;;;4942352;28;8891;-76
2022/03/20 14:08:09;;;;;;;;;13.00;12.25;;;;;;;;4943345;28;8889;-76
2022/03/20 14:10:49;;;;;;;;;13.50;13.50;;;;;;;;4942007;28;8888;-77
2022/03/20 14:13:18;;;;;;;;;19.25;18.00;;;;;;;;4942827;28;9015;-77
2022/03/20 14:16:06;;;;;;;;;17.00;14.75;;;;;;;;4977823;28;9033;-77
2022/03/20 14:18:34;;;;;;;;;18.25;18.00;;;;;;;;4941845;28;8889;-77
2022/03/20 14:21:10;;;;;;;;;22.25;22.25;;;;;;;;4943016;28;9773;-77
2022/03/20 14:23:53;;;;;;;;;16.00;16.00;;;;;;;;4941833;28;8942;-77
2022/03/20 14:26:21;;;;;;;;;20.50;19.00;;;;;;;;4942162;28;8908;-78
2022/03/20 14:29:01;;;;;;;;;15.00;15.00;;;;;;;;4956747;28;8899;-77
2022/03/20 14:39:44;;;;;;;;;18.75;18.75;;;;;;;;4938239;28;8863;-77
2022/03/20 14:42:25;;;;;;;;;18.00;18.00;;;;;;;;4936419;28;9023;-77
2022/03/20 14:44:52;;;;;;;;;17.00;16.50;;;;;;;;4941630;28;8873;-77
2022/03/20 14:47:20;;;;;;;;;14.50;14.25;;;;;;;;4942456;28;8928;-77
2022/03/20 14:49:50;;;;;;;;;18.50;14.25;;;;;;;;4957886;28;8872;-76
2022/03/20 14:52:19;;;;;;;;;14.50;14.25;;;;;;;;4942940;28;8865;-78
2022/03/20 14:54:47;;;;;;;;;18.50;18.00;;;;;;;;4942128;28;9491;-78
2022/03/20 14:57:15;;;;;;;;;17.25;15.00;;;;;;;;4941604;28;9022;-78
2022/03/20 14:59:44;;;;;;;;;19.00;16.00;;;;;;;;4946503;28;9732;-78
2022/03/20 15:02:11;;;;;;;;;15.50;13.50;;;;;;;;4951366;28;8821;-78
2022/03/20 15:04:40;;;;;;;;;14.75;14.75;;;;;;;;4942536;28;8885;-78
2022/03/20 15:07:09;;;;;;;;;14.25;14.25;;;;;;;;4932046;28;8892;-78
2022/03/20 15:12:24;;;;;;;;;18.75;16.00;;;;;;;;4942069;28;8825;-78
2022/03/20 15:14:53;;;;;;;;;11.50;11.50;;;;;;;;4940977;28;9478;-79
2022/03/20 15:17:22;;;;;;;;;13.75;13.75;;;;;;;;5007725;28;9242;-78
2022/03/20 15:19:50;;;;;;;;;19.00;14.75;;;;;;;;4941407;28;8900;-78
2022/03/20 15:22:17;;;;;;;;;17.75;17.75;;;;;;;;5007462;28;9019;-78
2022/03/20 15:24:46;;;;;;;;;19.00;18.00;;;;;;;;4936536;28;8922;-78
2022/03/20 15:27:16;;;;;;;;;16.25;16.00;;;;;;;;4935583;28;8868;-80
2022/03/20 15:29:43;;;;;;;;;12.50;12.25;;;;;;;;4941769;28;8873;-78
2022/03/20 15:32:12;;;;;;;;;14.75;14.75;;;;;;;;4936744;28;8959;-78
2022/03/20 15:34:40;;;;;;;;;13.75;13.25;;;;;;;;4941460;28;8869;-78
2022/03/20 15:37:07;;;;;;;;;17.00;16.00;;;;;;;;4940716;28;8881;-77